Espaço - Ciências - Fenômenos Naturais
Meteógrafos Informações Meteorológicas em tempo real

Aeroporto de Vitória da Conquista

Histórico do Tempo
Temperatura atual: 18 graus 64 F    Umidade relativa: 82 %
Velocidade do vento: 07 nós 12 Km/h    Direção: 360 graus N
Ajuste do altímetro ..: 1019 HPA
Visibilidade: Ótima    Tempo presente: Não Disponível

Observação
Poucas nuvens a 300 Pés.

Data Hora BRTTempo°CUmidadePressãoVentoVisib.
24/05 - 06:56   Não Disponível 18° 82% 1019 Norte/12 km/h OK
24/05 - 05:56   ND ND° ND% ND /0 km/h ND
24/05 - 04:56   ND ND° ND% ND /0 km/h ND
24/05 - 03:56   ND ND° ND% ND /0 km/h ND
24/05 - 02:56   Céu Limpo 19° 82% 1019 Leste/9 km/h OK
24/05 - 01:56   Céu Limpo 19° 82% 1019 Leste/9 km/h OK
24/05 - 00:56   Céu Limpo 21° 77% 1019 Leste/10 km/h OK
23/05 - 23:56   Céu Limpo 20° 82% 1019 Este-sudeste/16 km/h OK
23/05 - 22:56   Céu Limpo 21° 77% 1019 Leste/16 km/h OK
23/05 - 21:56   Céu Limpo 21° 77% 1019 Leste/16 km/h OK
23/05 - 20:56   Céu Limpo 22° 73% 1019 Este-sudeste/9 km/h OK
23/05 - 19:56   Céu Limpo 23° 69% 1019 Sudeste/10 km/h OK
23/05 - 18:56   Não Disponível 22° 64% 1018 Sudeste/10 km/h OK
23/05 - 17:56   Não Disponível 24° 57% 1018 Este-sudeste/14 km/h OK
23/05 - 16:56   Não Disponível 27° 47% 1018 Sudeste/19 km/h OK
23/05 - 15:56   Não Disponível 27° 44% 1017 Sudeste/18 km/h OK
23/05 - 14:56   Não Disponível 28° 39% 1018 Sul-sudeste/14 km/h OK
23/05 - 13:56   Poucas nuvens esparsas 27° 39% 1019 Este-sudeste/5 km/h OK
23/05 - 12:56   Não Disponível 27° 36% 1019 Sul-sudeste/16 km/h OK
23/05 - 11:56   Céu Limpo 27° 42% 1020 Este-sudeste/5 km/h OK
23/05 - 10:56   Céu Limpo 26° 47% 1021 Este-nordeste/7 km/h OK
23/05 - 09:56   Céu Limpo 24° 50% 1021 Leste/10 km/h OK
23/05 - 08:56   Céu Limpo 22° 56% 1021 Leste/10 km/h OK
23/05 - 07:56   Céu Limpo 19° 77% 1020 Sudeste/7 km/h OK


Apolo11.com - Todos os direitos reservados - 2000 - 2019
Política de Privacidade   |     Termo de Uso e Licenciamento   |  -   Entre em Contato

"Política é a guerra sem sangue enquanto a guerra é a política com sangue" - Mao Tsé-Tung